createdAt,value
2019-02-07T00:00:47.483Z,61.23
2019-02-07T00:03:19.149Z,57.07
2019-02-07T00:05:50.737Z,54.07
2019-02-07T00:08:22.720Z,51.47
2019-02-07T00:10:54.804Z,49.47
2019-02-07T00:13:26.533Z,56.87
2019-02-07T00:15:58.123Z,56.93
2019-02-07T00:18:30.062Z,55.37
2019-02-07T00:21:02.401Z,55.67
2019-02-07T00:23:34.261Z,55.37
2019-02-07T00:26:06.437Z,47.80
2019-02-07T00:28:38.050Z,52.73
2019-02-07T00:31:09.644Z,52.83
2019-02-07T00:33:41.686Z,56.13
2019-02-07T00:36:13.448Z,59.60
2019-02-07T00:38:45.320Z,59.00
2019-02-07T00:41:16.991Z,47.80
2019-02-07T00:43:48.610Z,59.93
2019-02-07T00:46:20.332Z,60.33
2019-02-07T00:48:52.565Z,52.80
2019-02-07T00:51:24.187Z,53.23
2019-02-07T00:53:55.845Z,53.33
2019-02-07T00:56:27.484Z,59.87
2019-02-07T00:58:59.143Z,52.17
2019-02-07T01:01:30.747Z,58.53
2019-02-07T01:04:02.412Z,65.43
2019-02-07T01:06:34.022Z,58.93
2019-02-07T01:09:08.065Z,56.93
2019-02-07T01:11:39.776Z,61.20
2019-02-07T01:14:11.422Z,64.97
2019-02-07T01:16:43.075Z,59.07
2019-02-07T01:19:14.720Z,57.37
2019-02-07T01:21:46.386Z,59.13
2019-02-07T01:24:18.124Z,59.87
2019-02-07T01:26:49.990Z,62.07
2019-02-07T01:29:21.790Z,55.50
2019-02-07T01:31:53.573Z,54.30
2019-02-07T01:34:25.429Z,58.33
2019-02-07T01:36:57.215Z,66.00
2019-02-07T01:39:30.003Z,63.53
2019-02-07T01:42:01.904Z,60.57
2019-02-07T01:44:33.548Z,57.67
2019-02-07T01:47:05.674Z,59.40
2019-02-07T01:49:37.333Z,55.20
2019-02-07T01:52:08.938Z,57.00
2019-02-07T01:54:40.503Z,55.80
2019-02-07T01:57:12.131Z,57.00
2019-02-07T01:59:44.196Z,52.83
2019-02-07T02:02:15.924Z,65.00
2019-02-07T02:04:47.515Z,58.73
2019-02-07T02:07:19.187Z,60.20
2019-02-07T02:09:50.813Z,53.77
2019-02-07T02:12:22.656Z,61.20
2019-02-07T02:14:54.374Z,63.73
2019-02-07T02:17:26.196Z,51.93
2019-02-07T02:19:57.841Z,56.17
2019-02-07T02:22:29.516Z,59.90
2019-02-07T02:25:01.473Z,55.43
2019-02-07T02:27:33.143Z,69.33
2019-02-07T02:30:12.299Z,56.77
2019-02-07T02:32:44.015Z,62.43
2019-02-07T02:35:15.710Z,77.77
2019-02-07T02:37:47.372Z,72.30
2019-02-07T02:40:19.262Z,59.93
2019-02-07T02:42:50.929Z,64.77
2019-02-07T02:45:37.275Z,75.80
2019-02-07T02:47:59.092Z,68.73
2019-02-07T02:50:30.808Z,66.50
2019-02-07T02:53:02.373Z,91.13
2019-02-07T02:55:35.628Z,104.03
2019-02-07T02:58:07.808Z,136.40
2019-02-07T03:00:44.642Z,180.07
2019-02-07T03:03:19.438Z,103.90
2019-02-07T03:06:00.395Z,82.97
2019-02-07T03:08:36.387Z,71.50
2019-02-07T03:11:14.827Z,60.00
2019-02-07T03:14:03.338Z,57.53
2019-02-07T03:16:36.602Z,51.47
2019-02-07T03:19:26.163Z,61.53
2019-02-07T03:22:03.599Z,68.20
2019-02-07T03:24:37.977Z,73.37
2019-02-07T03:27:27.568Z,70.63
2019-02-07T03:30:17.062Z,61.27
2019-02-07T03:32:56.374Z,68.00
2019-02-07T03:35:30.435Z,66.20
2019-02-07T03:38:12.773Z,72.67
2019-02-07T03:40:50.475Z,58.63
2019-02-07T03:43:40.340Z,54.83
2019-02-07T03:46:28.550Z,76.87
2019-02-07T03:49:01.909Z,63.53
2019-02-07T03:51:37.942Z,64.23
2019-02-07T03:54:14.040Z,57.93
2019-02-07T03:56:59.733Z,59.87
2019-02-07T03:59:49.604Z,72.63
2019-02-07T04:02:40.583Z,67.60
2019-02-07T04:05:29.033Z,70.77
2019-02-07T04:08:02.767Z,67.47
2019-02-07T04:10:37.176Z,65.93
2019-02-07T04:13:10.583Z,69.33
2019-02-07T04:15:44.921Z,67.23
2019-02-07T04:18:34.594Z,67.43
2019-02-07T04:21:06.041Z,68.47
2019-02-07T04:23:39.370Z,68.73
2019-02-07T04:26:18.472Z,68.23
2019-02-07T04:28:57.600Z,57.00
2019-02-07T04:31:30.950Z,63.70
2019-02-07T04:34:20.258Z,66.70
2019-02-07T04:36:56.204Z,64.47
2019-02-07T04:39:47.646Z,67.07
2019-02-07T04:42:33.898Z,67.17
2019-02-07T04:45:24.720Z,68.73
2019-02-07T04:48:07.281Z,69.67
2019-02-07T04:50:49.609Z,73.23
2019-02-07T04:53:32.516Z,65.83
2019-02-07T04:56:14.643Z,67.53
2019-02-07T04:58:50.934Z,55.40
2019-02-07T05:01:34.348Z,74.00
2019-02-07T05:04:13.771Z,64.30
2019-02-07T05:06:45.221Z,73.43
2019-02-07T05:09:24.800Z,76.93
2019-02-07T05:12:14.262Z,73.27
2019-02-07T05:15:05.858Z,76.80
2019-02-07T05:17:45.051Z,87.13
2019-02-07T05:20:34.807Z,76.43
2019-02-07T05:23:26.428Z,69.53
2019-02-07T05:26:15.805Z,73.80
2019-02-07T05:28:49.235Z,77.30
2019-02-07T05:31:25.484Z,75.07
2019-02-07T05:34:16.816Z,76.93
2019-02-07T05:37:00.598Z,70.77
2019-02-07T05:39:52.184Z,79.03
2019-02-07T05:42:37.284Z,60.30
2019-02-07T05:45:30.102Z,80.20
2019-02-07T05:48:09.242Z,76.40
2019-02-07T05:50:42.483Z,65.73
2019-02-07T05:53:28.107Z,76.23
2019-02-07T05:56:01.348Z,71.20
2019-02-07T05:58:50.686Z,53.70
2019-02-07T06:01:39.248Z,62.20
2019-02-07T06:04:17.148Z,57.20
2019-02-07T06:06:51.502Z,74.37
2019-02-07T06:09:24.937Z,63.10
2019-02-07T06:12:08.772Z,71.27
2019-02-07T06:14:58.651Z,83.20
2019-02-07T06:17:44.061Z,67.53
2019-02-07T06:20:30.448Z,66.60
2019-02-07T06:23:12.499Z,73.47
2019-02-07T06:25:44.311Z,69.40
2019-02-07T06:28:20.566Z,78.30
2019-02-07T06:30:57.646Z,71.43
2019-02-07T06:33:31.943Z,80.27
2019-02-07T06:36:21.511Z,71.50
2019-02-07T06:38:54.839Z,83.10
2019-02-07T06:41:28.229Z,72.70
2019-02-07T06:44:04.589Z,88.43
2019-02-07T06:46:53.921Z,83.17
2019-02-07T06:49:43.617Z,74.80
2019-02-07T06:52:33.312Z,75.43
2019-02-07T06:55:11.442Z,75.00
2019-02-07T06:57:44.792Z,73.07
2019-02-07T07:00:26.864Z,87.10
2019-02-07T07:03:00.088Z,80.30
2019-02-07T07:05:39.430Z,73.77
2019-02-07T07:08:21.595Z,77.77
2019-02-07T07:11:08.543Z,74.87
2019-02-07T07:13:54.443Z,83.93
2019-02-07T07:16:31.244Z,91.87
2019-02-07T07:19:04.540Z,86.60
2019-02-07T07:21:57.033Z,100.27
2019-02-07T07:24:42.233Z,154.00
2019-02-07T07:27:24.703Z,110.30
2019-02-07T07:29:57.941Z,90.97
2019-02-07T07:32:43.555Z,82.17
2019-02-07T07:35:28.970Z,81.67
2019-02-07T07:38:14.351Z,71.83
2019-02-07T07:41:02.941Z,80.57
2019-02-07T07:43:42.974Z,88.67
2019-02-07T07:46:32.643Z,87.77
2019-02-07T07:49:05.951Z,89.40
2019-02-07T07:51:57.477Z,97.53
2019-02-07T07:54:31.826Z,93.97
2019-02-07T07:57:07.847Z,87.83
2019-02-07T07:59:59.520Z,71.17
2019-02-07T08:02:44.951Z,84.90
2019-02-07T08:05:30.962Z,74.30
2019-02-07T08:08:04.833Z,87.90
2019-02-07T08:10:54.412Z,83.73
2019-02-07T08:13:30.636Z,69.20
2019-02-07T08:16:11.259Z,81.07
2019-02-07T08:18:50.639Z,73.73
2019-02-07T08:21:40.247Z,62.40
2019-02-07T08:24:13.634Z,76.63
2019-02-07T08:26:52.746Z,82.97
2019-02-07T08:29:26.004Z,81.83
2019-02-07T08:31:57.433Z,83.53
2019-02-07T08:34:46.659Z,82.47
2019-02-07T08:37:35.965Z,71.90
2019-02-07T08:40:22.642Z,85.27
2019-02-07T08:42:58.740Z,63.67
2019-02-07T08:45:32.076Z,63.83
2019-02-07T08:48:05.399Z,65.83
2019-02-07T08:50:39.561Z,71.27
2019-02-07T08:53:19.875Z,74.13
2019-02-07T08:55:53.310Z,80.87
2019-02-07T08:58:42.941Z,62.23
2019-02-07T09:01:16.204Z,68.53
2019-02-07T09:03:49.439Z,87.77
2019-02-07T09:06:34.966Z,76.03
2019-02-07T09:09:16.888Z,67.27
2019-02-07T09:11:50.601Z,63.80
2019-02-07T09:14:29.636Z,70.47
2019-02-07T09:17:06.379Z,55.50
2019-02-07T09:19:45.423Z,80.27
2019-02-07T09:22:27.952Z,58.97
2019-02-07T09:25:02.464Z,61.53
2019-02-07T09:27:42.141Z,63.17
2019-02-07T09:30:28.722Z,61.33
2019-02-07T09:33:04.847Z,58.13
2019-02-07T09:35:47.160Z,76.47
2019-02-07T09:38:27.930Z,68.10
2019-02-07T09:41:01.200Z,62.03
2019-02-07T09:43:49.815Z,73.73
2019-02-07T09:46:39.289Z,65.57
2019-02-07T09:49:17.129Z,76.13
2019-02-07T09:51:59.685Z,89.23
2019-02-07T09:54:31.093Z,82.10
2019-02-07T09:57:07.360Z,64.03
2019-02-07T09:59:57.019Z,64.63
2019-02-07T10:02:37.689Z,67.03
2019-02-07T10:05:13.279Z,58.60
2019-02-07T10:07:55.208Z,50.27
2019-02-07T10:10:34.477Z,59.73
2019-02-07T10:13:24.286Z,79.43
2019-02-07T10:16:14.083Z,68.07
2019-02-07T10:19:05.805Z,59.00
2019-02-07T10:21:40.405Z,57.27
2019-02-07T10:24:17.967Z,68.80
2019-02-07T10:27:05.451Z,61.27
2019-02-07T10:29:42.357Z,62.17
2019-02-07T10:32:16.907Z,73.37
2019-02-07T10:34:53.129Z,79.93
2019-02-07T10:37:28.014Z,71.70
2019-02-07T10:40:11.122Z,72.67
2019-02-07T10:42:45.573Z,67.07
2019-02-07T10:45:29.434Z,74.83
2019-02-07T10:48:20.894Z,65.20
2019-02-07T10:50:57.177Z,62.73
2019-02-07T10:53:39.655Z,71.33
2019-02-07T10:56:29.204Z,74.27
2019-02-07T10:59:02.507Z,74.93
2019-02-07T11:01:42.261Z,82.50
2019-02-07T11:04:21.714Z,77.37
2019-02-07T11:06:53.575Z,63.00
2019-02-07T11:09:36.156Z,73.03
2019-02-07T11:12:07.837Z,78.97
2019-02-07T11:14:47.291Z,70.77
2019-02-07T11:17:27.532Z,79.33
2019-02-07T11:20:06.791Z,86.37
2019-02-07T11:22:40.188Z,77.67
2019-02-07T11:25:14.308Z,78.93
2019-02-07T11:27:47.748Z,77.63
2019-02-07T11:30:21.150Z,83.97
2019-02-07T11:33:12.686Z,68.23
2019-02-07T11:35:52.285Z,90.03
2019-02-07T11:38:41.998Z,86.13
2019-02-07T11:41:16.433Z,95.07
2019-02-07T11:43:56.020Z,85.17
2019-02-07T11:46:37.167Z,80.97
2019-02-07T11:49:10.374Z,98.77
2019-02-07T11:51:47.134Z,90.20
2019-02-07T11:54:20.442Z,98.50
2019-02-07T11:56:54.565Z,86.87
2019-02-07T11:59:44.620Z,83.43
2019-02-07T12:02:24.384Z,78.97
2019-02-07T12:05:06.451Z,114.13
2019-02-07T12:07:42.658Z,113.70
2019-02-07T12:10:14.561Z,101.07
2019-02-07T12:12:54.954Z,92.40
2019-02-07T12:15:37.108Z,77.47
2019-02-07T12:18:16.370Z,87.33
2019-02-07T12:20:49.642Z,90.60
2019-02-07T12:23:24.403Z,88.07
2019-02-07T12:25:58.641Z,96.23
2019-02-07T12:28:36.185Z,97.30
2019-02-07T12:31:15.421Z,105.40
2019-02-07T12:33:48.709Z,97.07
2019-02-07T12:36:27.944Z,84.43
2019-02-07T12:39:07.802Z,105.53
2019-02-07T12:41:51.783Z,95.57
2019-02-07T12:44:36.070Z,114.67
2019-02-07T12:47:25.624Z,107.60
2019-02-07T12:50:15.253Z,100.10
2019-02-07T12:52:58.176Z,92.63
2019-02-07T12:55:52.208Z,97.47
2019-02-07T12:58:28.459Z,84.30
2019-02-07T13:01:04.342Z,93.73
2019-02-07T13:03:51.095Z,88.70
2019-02-07T13:06:40.838Z,92.53
2019-02-07T13:09:26.817Z,91.83
2019-02-07T13:12:05.823Z,90.10
2019-02-07T13:14:39.094Z,82.57
2019-02-07T13:17:24.673Z,79.73
2019-02-07T13:20:01.028Z,74.77
2019-02-07T13:22:33.966Z,70.07
2019-02-07T13:25:10.236Z,54.83
2019-02-07T13:28:00.637Z,67.83
2019-02-07T13:30:46.460Z,70.50
2019-02-07T13:33:24.878Z,64.13
2019-02-07T13:36:14.778Z,70.87
2019-02-07T13:38:50.843Z,74.67
2019-02-07T13:41:40.505Z,60.67
2019-02-07T13:44:19.550Z,55.93
2019-02-07T13:46:50.972Z,54.80
2019-02-07T13:49:25.340Z,56.50
2019-02-07T13:52:02.701Z,61.17
2019-02-07T13:54:34.815Z,58.53
2019-02-07T13:57:13.936Z,52.73
2019-02-07T13:59:56.475Z,58.30
2019-02-07T14:02:29.712Z,67.90
2019-02-07T14:05:04.019Z,73.70
2019-02-07T14:07:53.846Z,66.23
2019-02-07T14:10:25.193Z,64.43
2019-02-07T14:12:58.924Z,66.20
2019-02-07T14:15:30.282Z,66.53
2019-02-07T14:18:19.687Z,76.77
2019-02-07T14:21:01.875Z,68.47
2019-02-07T14:23:51.313Z,74.97
2019-02-07T14:26:36.865Z,74.43
2019-02-07T14:29:28.443Z,69.80
2019-02-07T14:32:01.699Z,67.27
2019-02-07T14:34:36.365Z,60.30
2019-02-07T14:37:12.635Z,78.43
2019-02-07T14:39:55.557Z,72.20
2019-02-07T14:42:40.938Z,59.40
2019-02-07T14:45:24.528Z,63.43
2019-02-07T14:47:56.182Z,74.70
2019-02-07T14:50:27.881Z,81.40
2019-02-07T14:53:02.017Z,68.87
2019-02-07T14:55:32.845Z,71.97
2019-02-07T14:58:04.521Z,76.07
2019-02-07T15:00:36.491Z,73.27
2019-02-07T15:03:08.228Z,84.53
2019-02-07T15:05:39.956Z,79.33
2019-02-07T15:08:11.547Z,90.90
2019-02-07T15:10:43.212Z,68.37
2019-02-07T15:13:14.901Z,68.00
2019-02-07T15:15:47.178Z,74.83
2019-02-07T15:18:18.733Z,73.40
2019-02-07T15:20:50.311Z,74.57
2019-02-07T15:23:21.900Z,70.27
2019-02-07T15:25:53.519Z,67.17
2019-02-07T15:28:25.681Z,81.77
2019-02-07T15:30:57.317Z,76.13
2019-02-07T15:33:28.938Z,70.17
2019-02-07T15:36:00.574Z,89.17
2019-02-07T15:38:32.179Z,120.10
2019-02-07T15:41:04.979Z,135.60
2019-02-07T15:43:36.665Z,85.13
2019-02-07T15:46:09.331Z,107.90
2019-02-07T15:48:40.976Z,82.37
2019-02-07T15:51:13.646Z,87.43
2019-02-07T15:53:45.306Z,107.23
2019-02-07T15:56:16.982Z,102.40
2019-02-07T15:58:56.257Z,96.10
2019-02-07T16:01:35.517Z,91.93
2019-02-07T16:04:08.809Z,79.60
2019-02-07T16:06:40.490Z,80.83
2019-02-07T16:09:12.138Z,75.43
2019-02-07T16:11:43.785Z,75.73
2019-02-07T16:14:15.452Z,60.80
2019-02-07T16:16:47.780Z,68.43
2019-02-07T16:19:19.819Z,81.70
2019-02-07T16:21:51.592Z,80.73
2019-02-07T16:24:23.405Z,78.93
2019-02-07T16:26:55.736Z,79.87
2019-02-07T16:29:28.308Z,62.33
2019-02-07T16:32:01.374Z,65.27
2019-02-07T16:34:34.013Z,58.67
2019-02-07T16:37:06.021Z,58.47
2019-02-07T16:39:37.697Z,71.10
2019-02-07T16:42:09.350Z,59.00
2019-02-07T16:44:41.006Z,46.40
2019-02-07T16:47:12.705Z,47.23
2019-02-07T16:49:44.340Z,43.03
2019-02-07T16:52:16.101Z,43.90
2019-02-07T16:54:48.020Z,44.87
2019-02-07T16:57:19.705Z,47.37
2019-02-07T16:59:51.427Z,38.60
2019-02-07T17:02:23.089Z,41.33
2019-02-07T17:04:54.747Z,40.30
2019-02-07T17:07:26.410Z,50.57
2019-02-07T17:09:58.273Z,51.30
2019-02-07T17:12:30.022Z,63.87
2019-02-07T17:15:01.733Z,54.10
2019-02-07T17:17:33.803Z,58.07
2019-02-07T17:20:14.703Z,57.47
2019-02-07T17:22:47.583Z,59.30
2019-02-07T17:25:19.430Z,50.10
2019-02-07T17:27:51.059Z,62.83
2019-02-07T17:30:23.516Z,64.27
2019-02-07T17:32:55.388Z,67.70
2019-02-07T17:35:27.245Z,62.07
2019-02-07T17:37:58.981Z,58.37
2019-02-07T17:40:30.825Z,50.47
2019-02-07T17:43:02.479Z,67.47
2019-02-07T17:45:34.492Z,61.97
2019-02-07T17:48:06.147Z,61.53
2019-02-07T17:50:41.729Z,66.50
2019-02-07T17:53:14.311Z,63.07
2019-02-07T17:55:46.103Z,71.77
2019-02-07T17:58:17.783Z,68.73
2019-02-07T18:01:01.665Z,68.67
2019-02-07T18:03:34.328Z,64.30
2019-02-07T18:06:06.617Z,62.27
2019-02-07T18:08:38.206Z,55.73
2019-02-07T18:11:09.909Z,60.03
2019-02-07T18:13:41.606Z,59.57
2019-02-07T18:16:13.290Z,59.17
2019-02-07T18:18:45.413Z,56.47
2019-02-07T18:21:17.305Z,52.20
2019-02-07T18:23:48.965Z,59.53
2019-02-07T18:26:20.688Z,50.87
2019-02-07T18:28:53.366Z,57.00
2019-02-07T18:31:24.944Z,57.13
2019-02-07T18:33:56.631Z,51.93
2019-02-07T18:36:28.217Z,55.40
2019-02-07T18:38:59.822Z,52.67
2019-02-07T18:41:31.420Z,64.90
2019-02-07T18:44:03.091Z,51.60
2019-02-07T18:46:34.968Z,54.93
2019-02-07T18:49:06.648Z,53.57
2019-02-07T18:51:45.275Z,52.77
2019-02-07T18:54:11.692Z,52.07
2019-02-07T18:56:43.366Z,60.80
2019-02-07T18:59:15.324Z,59.63
2019-02-07T19:01:46.916Z,57.57
2019-02-07T19:04:18.632Z,65.57
2019-02-07T19:06:50.271Z,58.20
2019-02-07T19:09:21.845Z,47.13
2019-02-07T19:11:53.898Z,50.57
2019-02-07T19:14:25.492Z,51.83
2019-02-07T19:16:57.087Z,48.07
2019-02-07T19:19:28.888Z,61.33
2019-02-07T19:22:00.769Z,49.87
2019-02-07T19:24:32.846Z,52.93
2019-02-07T19:27:04.452Z,58.43
2019-02-07T19:29:36.027Z,50.87
2019-02-07T19:32:07.607Z,42.43
2019-02-07T19:34:39.199Z,46.33
2019-02-07T19:37:12.245Z,54.63
2019-02-07T19:39:43.822Z,49.57
2019-02-07T19:42:15.496Z,55.90
2019-02-07T19:44:47.213Z,56.90
2019-02-07T19:47:18.891Z,46.87
2019-02-07T19:49:51.237Z,48.57
2019-02-07T19:52:22.863Z,49.53
2019-02-07T19:54:54.719Z,46.93
2019-02-07T19:57:26.407Z,48.97
2019-02-07T19:59:57.996Z,48.07
2019-02-07T20:02:29.594Z,46.33
2019-02-07T20:05:01.524Z,43.67
2019-02-07T20:07:33.202Z,42.80
2019-02-07T20:10:16.745Z,49.20
2019-02-07T20:12:48.473Z,49.93
2019-02-07T20:15:35.757Z,54.23
2019-02-07T20:18:09.347Z,54.00
2019-02-07T20:20:41.557Z,46.13
2019-02-07T20:23:13.793Z,50.07
2019-02-07T20:25:45.686Z,47.27
2019-02-07T20:28:17.522Z,46.53
2019-02-07T20:33:20.833Z,54.67
2019-02-07T20:35:53.102Z,42.40
2019-02-07T20:38:24.960Z,47.90
2019-02-07T20:40:56.630Z,47.27
2019-02-07T20:43:28.313Z,47.50
2019-02-07T20:45:59.961Z,40.90
2019-02-07T20:48:31.654Z,57.40
2019-02-07T20:51:03.287Z,45.07
2019-02-07T20:53:35.483Z,43.93
2019-02-07T20:56:07.146Z,46.67
2019-02-07T20:58:38.826Z,47.03
2019-02-07T21:01:10.565Z,46.50
2019-02-07T21:03:42.174Z,45.53
2019-02-07T21:06:14.216Z,40.40
2019-02-07T21:08:46.106Z,41.90
2019-02-07T21:11:17.704Z,41.70
2019-02-07T21:13:49.435Z,41.73
2019-02-07T21:16:21.117Z,45.67
2019-02-07T21:18:52.720Z,39.43
2019-02-07T21:21:24.500Z,45.07
2019-02-07T21:23:57.716Z,38.90
2019-02-07T21:26:29.386Z,45.07
2019-02-07T21:29:01.132Z,47.33
2019-02-07T21:31:32.761Z,48.90
2019-02-07T21:34:04.427Z,40.03
2019-02-07T21:36:36.062Z,45.30
2019-02-07T21:39:10.986Z,54.00
2019-02-07T21:41:42.559Z,49.07
2019-02-07T21:44:14.272Z,39.23
2019-02-07T21:46:46.168Z,43.70
2019-02-07T21:49:17.774Z,43.50
2019-02-07T21:51:49.441Z,43.27
2019-02-07T21:54:21.518Z,45.87
2019-02-07T21:56:53.174Z,42.33
2019-02-07T21:59:25.192Z,40.03
2019-02-07T22:01:56.820Z,44.00
2019-02-07T22:04:28.410Z,42.03
2019-02-07T22:07:00.085Z,42.60
2019-02-07T22:09:32.243Z,38.90
2019-02-07T22:12:04.271Z,44.23
2019-02-07T22:14:35.871Z,45.77
2019-02-07T22:17:07.543Z,38.07
2019-02-07T22:19:39.191Z,37.90
2019-02-07T22:22:10.830Z,39.27
2019-02-07T22:24:43.315Z,40.43
2019-02-07T22:27:15.980Z,34.27
2019-02-07T22:29:47.611Z,38.43
2019-02-07T22:32:19.247Z,36.30
2019-02-07T22:34:50.923Z,35.43
2019-02-07T22:37:23.062Z,45.57
2019-02-07T22:39:55.246Z,36.60
2019-02-07T22:42:26.983Z,40.10
2019-02-07T22:44:58.596Z,36.70
2019-02-07T22:47:30.192Z,39.73
2019-02-07T22:50:02.445Z,40.30
2019-02-07T22:52:34.163Z,43.07
2019-02-07T22:55:08.751Z,35.43
2019-02-07T22:57:40.366Z,32.30
2019-02-07T23:00:36.433Z,36.23
2019-02-07T23:03:18.937Z,38.70
2019-02-07T23:05:50.598Z,40.77
2019-02-07T23:08:22.186Z,45.57
2019-02-07T23:10:53.944Z,40.60
2019-02-07T23:13:25.606Z,44.77
2019-02-07T23:15:58.830Z,32.67
2019-02-07T23:18:30.438Z,27.10
2019-02-07T23:21:02.122Z,37.13
2019-02-07T23:23:33.821Z,49.30
2019-02-07T23:26:06.405Z,39.97
2019-02-07T23:28:38.511Z,36.10
2019-02-07T23:31:10.243Z,28.97
2019-02-07T23:33:41.908Z,39.67
2019-02-07T23:36:13.498Z,35.93
2019-02-07T23:38:45.233Z,34.97
2019-02-07T23:41:16.825Z,36.37
2019-02-07T23:43:48.982Z,34.50
2019-02-07T23:46:20.679Z,34.80
2019-02-07T23:48:52.275Z,37.77
2019-02-07T23:51:23.871Z,37.93
2019-02-07T23:53:55.465Z,33.03
2019-02-07T23:56:27.109Z,36.90
2019-02-07T23:58:59.140Z,36.50
